Time;durP1;ratioP1;P1;durP2;ratioP2;P2;SDS_P1;SDS_P2;PMS_P1;PMS_P2;Temp;Humidity;BMP_temperature;BMP_pressure;BME280_temperature;BME280_humidity;BME280_pressure;Samples;Min_cycle;Max_cycle;Signal;HPM_P1;HPM_P2
2021/10/08 00:00:51;;;;;;;6.90;4.55;;;;;;;;;;5002578;28;20471;-88
2021/10/08 00:03:19;;;;;;;8.23;4.32;;;;;;;;;;5013696;28;20049;-88
2021/10/08 00:05:48;;;;;;;5.43;3.60;;;;;;;;;;5014282;28;20054;-87
2021/10/08 00:08:19;;;;;;;7.40;4.32;;;;;;;;;;4992766;28;20077;-88
2021/10/08 00:10:46;;;;;;;6.93;4.18;;;;;;;;;;5003163;28;20395;-88
2021/10/08 00:13:13;;;;;;;6.13;3.60;;;;;;;;;;5013332;28;20132;-87
2021/10/08 00:15:40;;;;;;;8.13;4.25;;;;;;;;;;5006220;28;20050;-87
2021/10/08 00:18:07;;;;;;;6.10;3.53;;;;;;;;;;5006435;28;20058;-87
2021/10/08 00:20:34;;;;;;;6.07;3.42;;;;;;;;;;5005082;28;20046;-88
2021/10/08 00:23:02;;;;;;;6.10;3.88;;;;;;;;;;5006398;28;20100;-87
2021/10/08 00:25:30;;;;;;;4.28;2.97;;;;;;;;;;5015951;28;20049;-88
2021/10/08 00:27:57;;;;;;;6.72;4.30;;;;;;;;;;5010850;28;20069;-87
2021/10/08 00:30:24;;;;;;;7.93;4.10;;;;;;;;;;5013892;28;20054;-88
2021/10/08 00:32:51;;;;;;;7.00;3.67;;;;;;;;;;5004235;28;20096;-88
2021/10/08 00:35:18;;;;;;;6.93;4.05;;;;;;;;;;4998862;28;20077;-87
2021/10/08 00:37:45;;;;;;;6.57;3.78;;;;;;;;;;5009309;28;20100;-87
2021/10/08 00:40:12;;;;;;;6.18;3.97;;;;;;;;;;5006661;28;20050;-86
2021/10/08 00:42:41;;;;;;;7.43;3.92;;;;;;;;;;5015919;28;20053;-86
2021/10/08 00:45:08;;;;;;;7.93;4.93;;;;;;;;;;5012723;28;20057;-87
2021/10/08 00:47:35;;;;;;;6.63;3.45;;;;;;;;;;4996520;28;20525;-87
2021/10/08 00:50:02;;;;;;;6.35;3.95;;;;;;;;;;5012120;28;20053;-86
2021/10/08 00:52:28;;;;;;;7.55;4.03;;;;;;;;;;5011532;28;20060;-86
2021/10/08 00:54:55;;;;;;;8.00;3.92;;;;;;;;;;5008273;28;20084;-87
2021/10/08 00:57:22;;;;;;;8.05;4.13;;;;;;;;;;4999284;28;20069;-87
2021/10/08 00:59:51;;;;;;;6.70;3.97;;;;;;;;;;4988276;28;20081;-87
2021/10/08 01:02:19;;;;;;;6.03;4.07;;;;;;;;;;5007635;28;20069;-87
2021/10/08 01:04:48;;;;;;;6.72;4.55;;;;;;;;;;5005884;28;20046;-88
2021/10/08 01:07:15;;;;;;;8.80;3.92;;;;;;;;;;5012052;28;20502;-88
2021/10/08 01:09:44;;;;;;;8.68;4.03;;;;;;;;;;5011370;28;20049;-87
2021/10/08 01:12:11;;;;;;;8.65;4.95;;;;;;;;;;4990730;28;20042;-88
2021/10/08 01:14:39;;;;;;;7.63;3.72;;;;;;;;;;5006036;28;20050;-87
2021/10/08 01:17:14;;;;;;;8.60;4.20;;;;;;;;;;5008493;28;20487;-87
2021/10/08 01:19:41;;;;;;;5.80;3.20;;;;;;;;;;5018227;28;20070;-87
2021/10/08 01:22:09;;;;;;;7.60;4.10;;;;;;;;;;5011438;28;20197;-87
2021/10/08 01:24:36;;;;;;;6.88;3.60;;;;;;;;;;5006003;28;20506;-87
2021/10/08 01:27:03;;;;;;;7.63;4.32;;;;;;;;;;5010854;28;20553;-87
2021/10/08 01:29:30;;;;;;;5.72;3.47;;;;;;;;;;5012239;28;20084;-87
2021/10/08 01:31:57;;;;;;;5.57;3.90;;;;;;;;;;5012062;28;20490;-87
2021/10/08 01:34:24;;;;;;;7.63;3.60;;;;;;;;;;5011560;28;20049;-88
2021/10/08 01:36:50;;;;;;;7.15;3.30;;;;;;;;;;5007192;28;20052;-87
2021/10/08 01:39:19;;;;;;;4.60;3.25;;;;;;;;;;5007280;28;20116;-87
2021/10/08 01:41:45;;;;;;;7.32;3.40;;;;;;;;;;5011924;28;20053;-87
2021/10/08 01:44:12;;;;;;;4.78;2.80;;;;;;;;;;4997208;28;20077;-87
2021/10/08 01:46:39;;;;;;;5.05;3.15;;;;;;;;;;5011691;28;20046;-86
2021/10/08 01:49:06;;;;;;;6.70;3.58;;;;;;;;;;5010325;28;20399;-86
2021/10/08 01:51:32;;;;;;;5.07;3.10;;;;;;;;;;5011148;28;20057;-86
2021/10/08 01:53:59;;;;;;;5.18;3.33;;;;;;;;;;5010416;28;20046;-87
2021/10/08 01:56:29;;;;;;;6.40;4.10;;;;;;;;;;4995535;28;20104;-86
2021/10/08 01:58:58;;;;;;;4.63;2.97;;;;;;;;;;5022038;28;20116;-86
2021/10/08 02:01:27;;;;;;;5.15;3.03;;;;;;;;;;5006731;28;20399;-87
2021/10/08 02:03:54;;;;;;;6.18;3.65;;;;;;;;;;5010072;28;20049;-86
2021/10/08 02:06:21;;;;;;;7.57;4.10;;;;;;;;;;5014800;28;20049;-87
2021/10/08 02:08:48;;;;;;;6.30;3.40;;;;;;;;;;5012675;28;20577;-86
2021/10/08 02:11:15;;;;;;;6.28;3.47;;;;;;;;;;5006575;28;20054;-86
2021/10/08 02:13:44;;;;;;;8.02;4.10;;;;;;;;;;5003330;28;20043;-87
2021/10/08 02:16:11;;;;;;;7.93;4.18;;;;;;;;;;5019011;28;20046;-86
2021/10/08 02:18:38;;;;;;;7.60;4.47;;;;;;;;;;5011477;28;20077;-88
2021/10/08 02:21:05;;;;;;;8.60;4.55;;;;;;;;;;5007798;28;20053;-88
2021/10/08 02:23:33;;;;;;;6.97;3.88;;;;;;;;;;4997315;28;20073;-88
2021/10/08 02:25:59;;;;;;;9.13;4.50;;;;;;;;;;5001711;28;20526;-88
2021/10/08 02:28:26;;;;;;;7.75;3.78;;;;;;;;;;5014758;28;20100;-87
2021/10/08 02:30:56;;;;;;;6.35;3.70;;;;;;;;;;5009709;28;20453;-88
2021/10/08 02:33:23;;;;;;;6.88;3.80;;;;;;;;;;5008310;28;20062;-88
2021/10/08 02:35:50;;;;;;;7.72;3.95;;;;;;;;;;5004747;28;20120;-88
2021/10/08 02:38:17;;;;;;;9.20;4.45;;;;;;;;;;5007237;28;20046;-87
2021/10/08 02:40:44;;;;;;;11.40;5.13;;;;;;;;;;5011344;28;20061;-86
2021/10/08 02:43:11;;;;;;;9.43;4.57;;;;;;;;;;5011456;28;20051;-87
2021/10/08 02:45:38;;;;;;;8.52;4.22;;;;;;;;;;5012362;28;20109;-85
2021/10/08 02:48:07;;;;;;;7.05;4.65;;;;;;;;;;5008519;28;20054;-86
2021/10/08 02:50:34;;;;;;;7.15;4.50;;;;;;;;;;5010561;28;20553;-86
2021/10/08 02:53:01;;;;;;;9.27;5.10;;;;;;;;;;5017934;28;20069;-85
2021/10/08 02:55:28;;;;;;;7.28;4.88;;;;;;;;;;5003364;28;20073;-84
2021/10/08 02:57:55;;;;;;;9.10;4.57;;;;;;;;;;5013030;28;20116;-86
2021/10/08 03:00:21;;;;;;;8.80;5.00;;;;;;;;;;5018409;28;20044;-86
2021/10/08 03:02:48;;;;;;;8.07;4.85;;;;;;;;;;5009736;28;20395;-85
2021/10/08 03:05:16;;;;;;;10.15;4.85;;;;;;;;;;4995160;28;20050;-86
2021/10/08 03:07:44;;;;;;;7.72;5.05;;;;;;;;;;5014709;28;20046;-85
2021/10/08 03:10:14;;;;;;;7.22;4.68;;;;;;;;;;5014947;28;20054;-86
2021/10/08 03:12:41;;;;;;;8.85;4.97;;;;;;;;;;5006332;28;20054;-86
2021/10/08 03:15:09;;;;;;;8.57;5.10;;;;;;;;;;5008933;28;20061;-87
2021/10/08 03:17:35;;;;;;;9.90;5.13;;;;;;;;;;5005820;28;20042;-85
2021/10/08 03:20:02;;;;;;;9.50;6.35;;;;;;;;;;5015542;28;20176;-86
2021/10/08 03:22:30;;;;;;;7.72;5.28;;;;;;;;;;4988581;28;20110;-85
2021/10/08 03:24:57;;;;;;;9.90;5.78;;;;;;;;;;5009741;28;20093;-86
2021/10/08 03:27:26;;;;;;;9.35;5.50;;;;;;;;;;5013268;28;20084;-86
2021/10/08 03:29:54;;;;;;;7.15;5.22;;;;;;;;;;5014395;28;20050;-87
2021/10/08 03:32:21;;;;;;;10.18;6.10;;;;;;;;;;5007106;28;20053;-87
2021/10/08 03:34:50;;;;;;;9.57;5.40;;;;;;;;;;4993307;28;20050;-87
2021/10/08 03:37:20;;;;;;;8.35;5.30;;;;;;;;;;5010120;28;20046;-88
2021/10/08 03:39:50;;;;;;;7.82;5.32;;;;;;;;;;5003277;28;20069;-88
2021/10/08 03:42:18;;;;;;;9.13;5.65;;;;;;;;;;5004744;28;20137;-87
2021/10/08 03:44:52;;;;;;;9.88;6.32;;;;;;;;;;4993584;28;20065;-86
2021/10/08 03:47:23;;;;;;;11.20;5.78;;;;;;;;;;5014741;28;20076;-87
2021/10/08 03:49:51;;;;;;;9.90;6.18;;;;;;;;;;4987433;28;20454;-86
2021/10/08 03:52:18;;;;;;;11.15;6.32;;;;;;;;;;5001917;28;20050;-86
2021/10/08 03:54:45;;;;;;;11.45;6.72;;;;;;;;;;5014537;28;20511;-86
2021/10/08 03:57:13;;;;;;;9.95;6.45;;;;;;;;;;5009754;28;20050;-85
2021/10/08 03:59:40;;;;;;;9.27;6.05;;;;;;;;;;5006377;28;20053;-87
2021/10/08 04:02:07;;;;;;;9.50;5.45;;;;;;;;;;5006015;28;20130;-87
2021/10/08 04:04:34;;;;;;;7.72;5.82;;;;;;;;;;5008742;28;20164;-85
2021/10/08 04:07:01;;;;;;;10.95;7.13;;;;;;;;;;5006831;28;20052;-87
2021/10/08 04:09:29;;;;;;;9.07;5.90;;;;;;;;;;4996206;28;20081;-87
2021/10/08 04:11:58;;;;;;;10.48;6.38;;;;;;;;;;5008374;28;20060;-86
2021/10/08 04:14:30;;;;;;;10.13;7.47;;;;;;;;;;5016377;28;20070;-86
2021/10/08 04:16:57;;;;;;;8.32;5.90;;;;;;;;;;5019490;28;20050;-85
2021/10/08 04:19:23;;;;;;;11.82;6.78;;;;;;;;;;5015619;28;20398;-86
2021/10/08 04:21:51;;;;;;;12.10;7.00;;;;;;;;;;5017584;28;20146;-86
2021/10/08 04:24:17;;;;;;;8.95;6.30;;;;;;;;;;5015550;28;20072;-86
2021/10/08 04:26:45;;;;;;;10.80;5.85;;;;;;;;;;4995100;28;20188;-88
2021/10/08 04:29:12;;;;;;;10.23;6.38;;;;;;;;;;5016104;28;20053;-86
2021/10/08 04:31:40;;;;;;;11.20;6.45;;;;;;;;;;4998402;28;20045;-86
2021/10/08 04:34:07;;;;;;;11.82;6.90;;;;;;;;;;5018821;28;20049;-85
2021/10/08 04:36:34;;;;;;;14.77;6.68;;;;;;;;;;5004627;28;20050;-87
2021/10/08 04:39:02;;;;;;;11.93;7.25;;;;;;;;;;5000044;28;20085;-87
2021/10/08 04:41:28;;;;;;;12.10;7.63;;;;;;;;;;5015251;28;20089;-86
2021/10/08 04:43:55;;;;;;;10.98;7.45;;;;;;;;;;5013548;28;20050;-88
2021/10/08 04:46:22;;;;;;;11.07;6.47;;;;;;;;;;5013478;28;20050;-85
2021/10/08 04:48:50;;;;;;;12.05;7.43;;;;;;;;;;5019124;28;20448;-86
2021/10/08 04:51:19;;;;;;;12.57;7.53;;;;;;;;;;5018124;28;20392;-86
2021/10/08 04:53:45;;;;;;;13.43;8.10;;;;;;;;;;5005486;28;20501;-86
2021/10/08 04:56:12;;;;;;;13.35;9.13;;;;;;;;;;5015701;28;20053;-85
2021/10/08 04:58:39;;;;;;;12.07;7.60;;;;;;;;;;5016559;28;20049;-86
2021/10/08 05:01:06;;;;;;;12.27;7.47;;;;;;;;;;5011349;28;20402;-86
2021/10/08 05:03:32;;;;;;;12.50;7.20;;;;;;;;;;5014158;28;20050;-88
2021/10/08 05:06:01;;;;;;;15.18;7.25;;;;;;;;;;5016196;28;20046;-87
2021/10/08 05:08:27;;;;;;;9.82;7.55;;;;;;;;;;5010961;28;20439;-87
2021/10/08 05:10:54;;;;;;;11.40;7.32;;;;;;;;;;5013790;28;20054;-86
2021/10/08 05:13:21;;;;;;;12.60;7.25;;;;;;;;;;5009916;28;20054;-86
2021/10/08 05:15:48;;;;;;;10.20;6.68;;;;;;;;;;5010721;28;20510;-87
2021/10/08 05:18:15;;;;;;;11.07;7.13;;;;;;;;;;4995259;28;20104;-87
2021/10/08 05:20:42;;;;;;;9.75;6.68;;;;;;;;;;5015024;28;20042;-87
2021/10/08 05:23:10;;;;;;;13.02;7.90;;;;;;;;;;5000517;28;20081;-87
2021/10/08 05:25:38;;;;;;;10.43;7.53;;;;;;;;;;5014098;28;20052;-86
2021/10/08 05:28:05;;;;;;;9.82;6.82;;;;;;;;;;5013349;28;20046;-86
2021/10/08 05:30:32;;;;;;;11.95;7.35;;;;;;;;;;5011903;28;20042;-87
2021/10/08 05:32:58;;;;;;;12.35;7.10;;;;;;;;;;5010161;28;20042;-87
2021/10/08 05:35:28;;;;;;;10.90;6.80;;;;;;;;;;4999526;28;20096;-88
2021/10/08 05:37:55;;;;;;;11.32;6.88;;;;;;;;;;5012110;28;20078;-87
2021/10/08 05:40:24;;;;;;;15.55;7.63;;;;;;;;;;4995522;28;20046;-86
2021/10/08 05:42:56;;;;;;;12.18;8.02;;;;;;;;;;5020570;28;20050;-87
2021/10/08 05:45:22;;;;;;;15.02;7.93;;;;;;;;;;5011099;28;20041;-85
2021/10/08 05:47:49;;;;;;;12.55;8.45;;;;;;;;;;5013105;28;20050;-87
2021/10/08 05:50:16;;;;;;;11.07;7.55;;;;;;;;;;5008931;28;20052;-86
2021/10/08 05:52:46;;;;;;;11.38;7.00;;;;;;;;;;5007034;28;20050;-87
2021/10/08 05:55:13;;;;;;;10.82;7.63;;;;;;;;;;5009053;28;20546;-86
2021/10/08 05:57:41;;;;;;;16.50;8.25;;;;;;;;;;4992157;28;20077;-86
2021/10/08 06:00:09;;;;;;;12.60;8.93;;;;;;;;;;5005745;28;20054;-87
2021/10/08 06:02:36;;;;;;;13.68;7.80;;;;;;;;;;5011698;28;20053;-87
2021/10/08 06:05:03;;;;;;;13.20;8.27;;;;;;;;;;4996069;28;20509;-88
2021/10/08 06:07:30;;;;;;;14.10;8.45;;;;;;;;;;5014160;28;20049;-88
2021/10/08 06:09:57;;;;;;;12.10;8.20;;;;;;;;;;5018719;28;20064;-87
2021/10/08 06:12:26;;;;;;;13.38;8.38;;;;;;;;;;5007422;28;20054;-88
2021/10/08 06:14:54;;;;;;;12.60;8.00;;;;;;;;;;5008565;28;20129;-88
2021/10/08 06:17:21;;;;;;;16.33;9.35;;;;;;;;;;5007096;28;20050;-87
2021/10/08 06:19:48;;;;;;;12.23;8.85;;;;;;;;;;5008420;28;20057;-86
2021/10/08 06:22:15;;;;;;;11.20;7.90;;;;;;;;;;5017903;28;20050;-87
2021/10/08 06:24:42;;;;;;;12.25;8.43;;;;;;;;;;5012117;28;20056;-86
2021/10/08 06:27:09;;;;;;;14.68;8.93;;;;;;;;;;4995323;28;20128;-89
2021/10/08 06:29:35;;;;;;;12.50;8.65;;;;;;;;;;5013565;28;20053;-88
2021/10/08 06:32:06;;;;;;;14.73;8.55;;;;;;;;;;5013207;28;20141;-87
2021/10/08 06:34:33;;;;;;;12.80;8.63;;;;;;;;;;4996602;28;20540;-87
2021/10/08 06:37:00;;;;;;;12.50;8.20;;;;;;;;;;4996009;28;20116;-87
2021/10/08 06:39:27;;;;;;;13.80;9.38;;;;;;;;;;5014342;28;20041;-86
2021/10/08 06:41:54;;;;;;;13.57;9.18;;;;;;;;;;4996848;28;20112;-87
2021/10/08 06:44:20;;;;;;;15.07;9.40;;;;;;;;;;5012282;28;20062;-87
2021/10/08 06:46:47;;;;;;;17.13;9.73;;;;;;;;;;5013617;28;20064;-87
2021/10/08 06:49:15;;;;;;;13.55;9.40;;;;;;;;;;5018345;28;20049;-85
2021/10/08 06:51:42;;;;;;;14.25;9.23;;;;;;;;;;5020409;28;20050;-86
2021/10/08 06:54:09;;;;;;;15.07;8.95;;;;;;;;;;5013678;28;20046;-86
2021/10/08 06:56:38;;;;;;;13.52;9.48;;;;;;;;;;5013121;28;20084;-87
2021/10/08 06:59:05;;;;;;;13.88;9.65;;;;;;;;;;5013810;28;20057;-87
2021/10/08 07:01:31;;;;;;;13.10;8.80;;;;;;;;;;5013739;28;20042;-86
2021/10/08 07:04:07;;;;;;;17.13;10.68;;;;;;;;;;5014892;28;20054;-86
2021/10/08 07:06:36;;;;;;;15.13;9.63;;;;;;;;;;5027207;28;20050;-86
2021/10/08 07:09:03;;;;;;;13.75;8.82;;;;;;;;;;5013776;28;20046;-86
2021/10/08 07:11:30;;;;;;;14.35;9.35;;;;;;;;;;5013458;28;20414;-86
2021/10/08 07:13:57;;;;;;;14.00;8.45;;;;;;;;;;5012170;28;20438;-85
2021/10/08 07:16:25;;;;;;;13.07;8.40;;;;;;;;;;4996926;28;20491;-86
2021/10/08 07:18:54;;;;;;;13.30;8.10;;;;;;;;;;5013390;28;20045;-86
2021/10/08 07:21:21;;;;;;;13.52;8.52;;;;;;;;;;5019859;28;20046;-86
2021/10/08 07:23:50;;;;;;;14.20;8.05;;;;;;;;;;4996580;28;20108;-86
2021/10/08 07:26:18;;;;;;;13.85;8.82;;;;;;;;;;5014304;28;20061;-86
2021/10/08 07:28:45;;;;;;;13.85;8.13;;;;;;;;;;5029739;28;20057;-85
2021/10/08 07:31:12;;;;;;;12.95;8.55;;;;;;;;;;5024497;28;20470;-86
2021/10/08 07:33:39;;;;;;;15.35;9.63;;;;;;;;;;4996614;28;20045;-87
2021/10/08 07:36:07;;;;;;;18.77;10.75;;;;;;;;;;5013677;28;20097;-86
2021/10/08 07:38:33;;;;;;;16.23;8.65;;;;;;;;;;5012625;28;20061;-86
2021/10/08 07:41:01;;;;;;;13.10;8.15;;;;;;;;;;5013159;28;20057;-86
2021/10/08 07:43:28;;;;;;;14.30;8.55;;;;;;;;;;5013765;28;20051;-86
2021/10/08 07:45:55;;;;;;;13.40;8.90;;;;;;;;;;4997057;28;20479;-88
2021/10/08 07:48:22;;;;;;;19.90;11.32;;;;;;;;;;5019777;28;20049;-86
2021/10/08 07:50:49;;;;;;;13.40;8.80;;;;;;;;;;5019792;28;20470;-87
2021/10/08 07:53:18;;;;;;;12.10;8.45;;;;;;;;;;5016408;28;20411;-87
2021/10/08 07:55:45;;;;;;;12.02;8.13;;;;;;;;;;5017639;28;20559;-87
2021/10/08 07:58:13;;;;;;;13.75;8.75;;;;;;;;;;5016365;28;20057;-86
2021/10/08 08:00:40;;;;;;;9.80;7.03;;;;;;;;;;5018261;28;20049;-87
2021/10/08 08:03:07;;;;;;;11.15;7.32;;;;;;;;;;5011845;28;20080;-86
2021/10/08 08:05:33;;;;;;;14.70;9.07;;;;;;;;;;5016888;28;20045;-86
2021/10/08 08:08:00;;;;;;;12.70;8.93;;;;;;;;;;5020302;28;20403;-86
2021/10/08 08:10:27;;;;;;;12.73;8.00;;;;;;;;;;5020271;28;20104;-86
2021/10/08 08:12:54;;;;;;;12.25;8.23;;;;;;;;;;5020720;28;20510;-87
2021/10/08 08:15:22;;;;;;;26.58;9.38;;;;;;;;;;5018367;28;20058;-86
2021/10/08 08:17:49;;;;;;;13.48;9.38;;;;;;;;;;5002301;28;20050;-86
2021/10/08 08:20:16;;;;;;;14.32;9.25;;;;;;;;;;5019330;28;20061;-87
2021/10/08 08:22:42;;;;;;;14.60;8.10;;;;;;;;;;5033415;28;20037;-86
2021/10/08 08:25:10;;;;;;;16.60;8.40;;;;;;;;;;5037876;28;20049;-87
2021/10/08 08:27:37;;;;;;;12.93;7.65;;;;;;;;;;5038563;28;20056;-88
2021/10/08 08:30:07;;;;;;;13.98;8.23;;;;;;;;;;5018025;28;20058;-87
2021/10/08 08:32:35;;;;;;;13.25;8.75;;;;;;;;;;5018484;28;20136;-87
2021/10/08 08:35:06;;;;;;;13.07;8.27;;;;;;;;;;5009652;28;20056;-87
2021/10/08 08:37:32;;;;;;;14.15;8.90;;;;;;;;;;5017591;28;20046;-86
2021/10/08 08:40:02;;;;;;;13.15;8.45;;;;;;;;;;5017688;28;20506;-85
2021/10/08 08:42:29;;;;;;;15.13;9.32;;;;;;;;;;5017340;28;20073;-86
2021/10/08 08:44:56;;;;;;;12.23;8.70;;;;;;;;;;5015775;28;20061;-88
2021/10/08 08:47:24;;;;;;;14.85;9.77;;;;;;;;;;5023174;28;20103;-84
2021/10/08 08:49:55;;;;;;;14.60;8.60;;;;;;;;;;5016304;28;20822;-88
2021/10/08 08:52:22;;;;;;;13.77;8.85;;;;;;;;;;5015924;28;20510;-89
2021/10/08 08:54:52;;;;;;;17.35;10.50;;;;;;;;;;5017122;28;20084;-86
2021/10/08 08:57:20;;;;;;;16.45;8.55;;;;;;;;;;5016546;28;20042;-87
2021/10/08 09:00:01;;;;;;;14.30;9.55;;;;;;;;;;5016956;28;20083;-86
2021/10/08 09:02:30;;;;;;;15.30;8.73;;;;;;;;;;5022633;28;20054;-86
2021/10/08 09:04:58;;;;;;;13.07;9.15;;;;;;;;;;5013578;28;20579;-87
2021/10/08 09:07:33;;;;;;;13.77;8.45;;;;;;;;;;5024585;28;20046;-88
2021/10/08 09:10:11;;;;;;;10.93;7.83;;;;;;;;;;5000704;28;20132;-87
2021/10/08 09:12:39;;;;;;;13.77;8.48;;;;;;;;;;5017351;28;20104;-88
2021/10/08 09:15:07;;;;;;;14.57;8.10;;;;;;;;;;5028261;28;20115;-89
2021/10/08 09:17:34;;;;;;;12.57;8.85;;;;;;;;;;5020129;28;20103;-87
2021/10/08 09:20:05;;;;;;;12.35;8.38;;;;;;;;;;5013118;28;20046;-87
2021/10/08 09:22:51;;;;;;;13.77;9.10;;;;;;;;;;5014906;28;20049;-86
2021/10/08 09:25:20;;;;;;;;;;;;;;;;;;5015362;28;20061;-87
2021/10/08 09:27:49;;;;;;;14.73;8.88;;;;;;;;;;5030062;28;20290;-86
2021/10/08 09:30:16;;;;;;;11.35;8.13;;;;;;;;;;5014829;28;20046;-87
2021/10/08 09:32:45;;;;;;;14.05;8.93;;;;;;;;;;5015197;28;20082;-86
2021/10/08 09:35:15;;;;;;;14.13;8.88;;;;;;;;;;5030892;28;20045;-85
2021/10/08 09:37:43;;;;;;;15.60;10.02;;;;;;;;;;5013465;28;20069;-86
2021/10/08 09:40:24;;;;;;;13.80;9.00;;;;;;;;;;5015952;28;20475;-87
2021/10/08 09:42:57;;;;;;;14.40;9.95;;;;;;;;;;5013559;28;20058;-87
2021/10/08 09:45:52;;;;;;;13.52;9.25;;;;;;;;;;5033486;28;20050;-86
2021/10/08 09:48:19;;;;;;;15.48;9.32;;;;;;;;;;4981198;28;20450;-85
2021/10/08 09:51:02;;;;;;;17.13;10.38;;;;;;;;;;5024104;28;20089;-86
2021/10/08 09:53:29;;;;;;;13.00;8.93;;;;;;;;;;5021845;28;20046;-87
2021/10/08 09:55:56;;;;;;;14.88;9.98;;;;;;;;;;5008156;28;20101;-85
2021/10/08 09:58:24;;;;;;;15.93;9.63;;;;;;;;;;5003189;28;20053;-86
2021/10/08 10:00:57;;;;;;;15.77;9.95;;;;;;;;;;5021523;28;20052;-86
2021/10/08 10:03:26;;;;;;;15.85;9.70;;;;;;;;;;5013957;28;20495;-86
2021/10/08 10:05:53;;;;;;;13.73;9.32;;;;;;;;;;5025499;28;20057;-86
2021/10/08 10:08:23;;;;;;;15.60;10.23;;;;;;;;;;5022752;28;20084;-86
2021/10/08 10:10:52;;;;;;;15.35;9.70;;;;;;;;;;5028636;28;20439;-86
2021/10/08 10:13:20;;;;;;;15.27;10.77;;;;;;;;;;5022493;28;20049;-85
2021/10/08 10:15:48;;;;;;;17.33;9.95;;;;;;;;;;5015762;28;20052;-86
2021/10/08 10:18:16;;;;;;;17.10;10.15;;;;;;;;;;5012957;28;20136;-86
2021/10/08 10:20:46;;;;;;;18.08;10.27;;;;;;;;;;5014665;28;20061;-86
2021/10/08 10:23:15;;;;;;;17.90;10.68;;;;;;;;;;5005274;28;20144;-86
2021/10/08 10:25:44;;;;;;;18.67;11.00;;;;;;;;;;5017286;28;20406;-86
2021/10/08 10:28:12;;;;;;;17.98;11.30;;;;;;;;;;4995427;28;20065;-86
2021/10/08 10:30:39;;;;;;;18.45;12.00;;;;;;;;;;5014043;28;20049;-85
2021/10/08 10:33:07;;;;;;;16.52;11.77;;;;;;;;;;5015362;28;20674;-86
2021/10/08 10:35:56;;;;;;;16.23;11.05;;;;;;;;;;5015020;28;20077;-87
2021/10/08 10:38:41;;;;;;;20.30;11.38;;;;;;;;;;5014617;28;20042;-86
2021/10/08 10:41:25;;;;;;;20.35;11.98;;;;;;;;;;5014644;28;20125;-87
2021/10/08 10:44:19;;;;;;;17.95;11.52;;;;;;;;;;5013390;28;20405;-87
2021/10/08 10:46:52;;;;;;;20.25;12.93;;;;;;;;;;5012489;28;20057;-86
2021/10/08 10:49:42;;;;;;;17.52;11.50;;;;;;;;;;5014378;28;20050;-85
2021/10/08 10:52:27;;;;;;;18.05;11.55;;;;;;;;;;5013607;28;20059;-84
2021/10/08 10:55:12;;;;;;;20.50;12.25;;;;;;;;;;5010912;28;20050;-85
2021/10/08 10:58:18;;;;;;;16.77;12.23;;;;;;;;;;5014190;28;20041;-85
2021/10/08 11:00:49;;;;;;;20.75;12.00;;;;;;;;;;5011419;28;20458;-86
2021/10/08 11:03:20;;;;;;;19.92;11.48;;;;;;;;;;5013494;28;20571;-85
2021/10/08 11:06:14;;;;;;;18.17;11.98;;;;;;;;;;5013123;28;20054;-84
2021/10/08 11:09:20;;;;;;;19.92;13.25;;;;;;;;;;4993975;28;20050;-85
2021/10/08 11:11:48;;;;;;;17.08;11.75;;;;;;;;;;4972047;28;20063;-84
2021/10/08 11:14:20;;;;;;;18.55;11.18;;;;;;;;;;5006313;28;20482;-84
2021/10/08 11:16:47;;;;;;;15.75;10.38;;;;;;;;;;4993689;28;20096;-84
2021/10/08 11:19:39;;;;;;;15.93;10.07;;;;;;;;;;4999647;28;20137;-85
2021/10/08 11:22:06;;;;;;;17.00;10.85;;;;;;;;;;5010592;28;20132;-87
2021/10/08 11:24:33;;;;;;;15.98;10.13;;;;;;;;;;4992822;28;20077;-86
2021/10/08 11:27:01;;;;;;;19.65;12.05;;;;;;;;;;5020567;28;20111;-86
2021/10/08 11:29:31;;;;;;;17.27;10.68;;;;;;;;;;5012208;28;20464;-86
2021/10/08 11:32:07;;;;;;;16.65;11.65;;;;;;;;;;5014713;28;20054;-86
2021/10/08 11:34:34;;;;;;;17.95;11.40;;;;;;;;;;5026719;28;20045;-88
2021/10/08 11:37:05;;;;;;;17.20;11.38;;;;;;;;;;5027070;28;20052;-88
2021/10/08 11:39:32;;;;;;;16.20;10.48;;;;;;;;;;5017312;28;20045;-87
2021/10/08 11:42:08;;;;;;;16.73;10.38;;;;;;;;;;5018415;28;20042;-87
2021/10/08 11:44:41;;;;;;;;;;;;;;;;;;5018561;28;20414;-88
2021/10/08 11:50:11;;;;;;;13.30;9.10;;;;;;;;;;4999841;28;20065;-86
2021/10/08 11:52:40;;;;;;;14.33;8.50;;;;;;;;;;5019157;28;20069;-85
2021/10/08 11:55:18;;;;;;;13.93;9.45;;;;;;;;;;5018332;28;20050;-86
2021/10/08 11:57:57;;;;;;;13.27;8.50;;;;;;;;;;5018065;28;20085;-85
2021/10/08 12:00:28;;;;;;;16.42;9.43;;;;;;;;;;5013143;28;20129;-87
2021/10/08 12:03:03;;;;;;;10.73;6.72;;;;;;;;;;5020306;28;20077;-85
2021/10/08 12:05:44;;;;;;;10.93;7.67;;;;;;;;;;5014965;28;20418;-85
2021/10/08 12:08:13;;;;;;;14.93;7.43;;;;;;;;;;5006843;28;20046;-86
2021/10/08 12:10:40;;;;;;;11.02;7.20;;;;;;;;;;5017808;28;20128;-87
2021/10/08 12:13:07;;;;;;;11.02;7.13;;;;;;;;;;4997641;28;20060;-87
2021/10/08 12:15:36;;;;;;;11.50;6.97;;;;;;;;;;5018964;28;20056;-85
2021/10/08 12:18:04;;;;;;;10.68;7.13;;;;;;;;;;5020650;28;20053;-85
2021/10/08 12:20:32;;;;;;;12.95;7.47;;;;;;;;;;5010348;28;20049;-85
2021/10/08 12:23:21;;;;;;;11.48;7.07;;;;;;;;;;5011422;28;20050;-84
2021/10/08 12:25:49;;;;;;;9.77;6.93;;;;;;;;;;5002582;28;20064;-85
2021/10/08 12:28:19;;;;;;;10.27;6.95;;;;;;;;;;5018752;28;20046;-86
2021/10/08 12:31:09;;;;;;;10.43;7.15;;;;;;;;;;5027063;28;20045;-85
2021/10/08 12:33:38;;;;;;;11.30;7.00;;;;;;;;;;5032928;28;20141;-85
2021/10/08 12:36:17;;;;;;;10.23;7.20;;;;;;;;;;5000814;28;20046;-87
2021/10/08 12:38:54;;;;;;;8.82;6.85;;;;;;;;;;5015108;28;20053;-88
2021/10/08 12:41:23;;;;;;;10.82;7.28;;;;;;;;;;5017331;28;20050;-86
2021/10/08 12:43:50;;;;;;;11.20;7.20;;;;;;;;;;5018054;28;20487;-86
2021/10/08 12:46:21;;;;;;;10.90;6.63;;;;;;;;;;5019477;28;20061;-85
2021/10/08 12:48:58;;;;;;;10.15;7.13;;;;;;;;;;5016609;28;20058;-85
2021/10/08 12:51:25;;;;;;;11.88;6.95;;;;;;;;;;5014609;28;20078;-85
2021/10/08 12:54:17;;;;;;;10.15;6.93;;;;;;;;;;5016009;28;20049;-86
2021/10/08 12:56:44;;;;;;;10.23;7.10;;;;;;;;;;5016403;28;20050;-86
2021/10/08 12:59:11;;;;;;;9.07;6.93;;;;;;;;;;4998644;28;20088;-86
2021/10/08 13:01:53;;;;;;;13.82;7.43;;;;;;;;;;5010594;28;20042;-86
2021/10/08 13:04:21;;;;;;;10.93;7.32;;;;;;;;;;5028593;28;20053;-86
2021/10/08 13:06:50;;;;;;;9.00;6.18;;;;;;;;;;5026667;28;20055;-85
2021/10/08 13:09:21;;;;;;;9.40;6.18;;;;;;;;;;5011138;28;20050;-86
2021/10/08 13:11:50;;;;;;;10.75;5.55;;;;;;;;;;5015420;28;20050;-87
2021/10/08 13:14:21;;;;;;;9.95;7.07;;;;;;;;;;5014852;28;20116;-87
2021/10/08 13:16:51;;;;;;;11.15;7.15;;;;;;;;;;5014445;28;20450;-86
2021/10/08 13:19:28;;;;;;;9.27;7.00;;;;;;;;;;4995619;28;20062;-87
2021/10/08 13:21:55;;;;;;;11.45;6.43;;;;;;;;;;5010485;28;20050;-86
2021/10/08 13:24:25;;;;;;;9.80;6.38;;;;;;;;;;5014205;28;20372;-85
2021/10/08 13:26:52;;;;;;;9.95;6.93;;;;;;;;;;5015682;28;20050;-85
2021/10/08 13:29:19;;;;;;;8.23;6.35;;;;;;;;;;4980976;28;20728;-87
2021/10/08 13:31:45;;;;;;;10.07;6.82;;;;;;;;;;5013804;28;20058;-85
2021/10/08 13:34:14;;;;;;;8.63;6.63;;;;;;;;;;5014498;28;20057;-88
2021/10/08 13:36:40;;;;;;;10.77;6.43;;;;;;;;;;5015244;28;20038;-88
2021/10/08 13:39:07;;;;;;;10.50;6.30;;;;;;;;;;5000920;28;20041;-88
2021/10/08 13:41:35;;;;;;;9.13;6.00;;;;;;;;;;5007921;28;20057;-85
2021/10/08 13:44:02;;;;;;;8.95;6.30;;;;;;;;;;4997433;28;20085;-85
2021/10/08 13:46:29;;;;;;;10.07;6.00;;;;;;;;;;5009571;28;20074;-88
2021/10/08 13:48:56;;;;;;;8.98;6.30;;;;;;;;;;5012964;28;20103;-87
2021/10/08 13:51:24;;;;;;;11.25;6.97;;;;;;;;;;5014579;28;20108;-87
2021/10/08 13:53:52;;;;;;;11.55;6.72;;;;;;;;;;5012701;28;20057;-87
2021/10/08 13:56:19;;;;;;;8.73;6.22;;;;;;;;;;5015268;28;20050;-88
2021/10/08 13:58:46;;;;;;;9.55;6.47;;;;;;;;;;5009903;28;20049;-86
2021/10/08 14:01:15;;;;;;;9.88;6.00;;;;;;;;;;5009775;28;20053;-85
2021/10/08 14:03:47;;;;;;;9.35;5.90;;;;;;;;;;5022535;28;20050;-88
2021/10/08 14:09:19;;;;;;;9.05;6.18;;;;;;;;;;5015765;28;20189;-87
2021/10/08 14:11:46;;;;;;;10.48;6.70;;;;;;;;;;5026481;28;20101;-87
2021/10/08 14:14:13;;;;;;;9.50;6.32;;;;;;;;;;5021264;28;20069;-87
2021/10/08 14:16:40;;;;;;;10.13;6.45;;;;;;;;;;5020364;28;20048;-87
2021/10/08 14:19:06;;;;;;;11.05;7.05;;;;;;;;;;5023440;28;20053;-89
2021/10/08 14:21:33;;;;;;;9.45;6.63;;;;;;;;;;5007772;28;20049;-88
2021/10/08 14:24:00;;;;;;;10.30;6.55;;;;;;;;;;5014210;28;20042;-87
2021/10/08 14:26:28;;;;;;;9.45;6.63;;;;;;;;;;5014379;28;20056;-89
2021/10/08 14:28:55;;;;;;;11.27;6.93;;;;;;;;;;5014219;28;20053;-87
2021/10/08 14:31:22;;;;;;;9.68;6.53;;;;;;;;;;5011841;28;20467;-87
2021/10/08 14:33:49;;;;;;;9.52;5.97;;;;;;;;;;5012456;28;20076;-90
2021/10/08 14:36:17;;;;;;;10.90;7.10;;;;;;;;;;4996047;28;20104;-89
2021/10/08 14:38:44;;;;;;;11.60;6.88;;;;;;;;;;5011640;28;20487;-87
2021/10/08 14:41:11;;;;;;;11.30;7.18;;;;;;;;;;4990074;28;20483;-90
2021/10/08 14:43:42;;;;;;;12.02;7.88;;;;;;;;;;4996782;28;20053;-89
2021/10/08 14:46:09;;;;;;;11.07;7.07;;;;;;;;;;5005376;28;20054;-89
2021/10/08 14:48:36;;;;;;;11.00;7.85;;;;;;;;;;5013398;28;20050;-88
2021/10/08 14:51:03;;;;;;;10.18;7.07;;;;;;;;;;4996340;28;20056;-91